Time;durP1;ratioP1;P1;durP2;ratioP2;P2;SDS_P1;SDS_P2;PMS_P1;PMS_P2;Temp;Humidity;BMP_temperature;BMP_pressure;BME280_temperature;BME280_humidity;BME280_pressure;Samples;Min_cycle;Max_cycle;Signal;HPM_P1;HPM_P2
2021/07/03 00:01:31;;;;;;;0.00;0.00;;;16.00;82.80;15.20;101650.00;;;;5003800;28;20042;-71
2021/07/03 00:03:57;;;;;;;0.00;0.00;;;16.00;82.80;15.10;101660.00;;;;5020840;28;20045;-70
2021/07/03 00:06:23;;;;;;;0.00;0.00;;;16.00;82.90;15.10;101656.00;;;;5036657;28;20041;-71
2021/07/03 00:08:49;;;;;;;0.00;0.00;;;15.90;82.70;15.10;101640.00;;;;5020583;28;20111;-70
2021/07/03 00:11:15;;;;;;;0.00;0.00;;;15.90;82.90;15.10;101649.00;;;;5035110;28;20103;-70
2021/07/03 00:13:41;;;;;;;0.00;0.00;;;15.90;82.70;15.10;101654.00;;;;5019229;28;20511;-71
2021/07/03 00:16:08;;;;;;;0.00;0.00;;;15.90;82.80;15.10;101648.00;;;;5021161;28;20048;-70
2021/07/03 00:18:34;;;;;;;0.00;0.00;;;15.90;83.10;15.10;101647.00;;;;5019667;28;20037;-71
2021/07/03 00:21:02;;;;;;;0.00;0.00;;;15.90;82.80;15.10;101662.00;;;;5021199;28;20095;-70
2021/07/03 00:23:28;;;;;;;0.00;0.00;;;15.80;81.90;15.00;101663.00;;;;5021910;28;20680;-70
2021/07/03 00:25:54;;;;;;;0.00;0.00;;;15.80;82.90;15.00;101657.00;;;;5008584;28;20674;-71
2021/07/03 00:28:20;;;;;;;0.00;0.00;;;15.80;83.10;15.00;101665.00;;;;5024839;28;20037;-71
2021/07/03 00:30:46;;;;;;;0.00;0.00;;;15.80;83.10;15.00;101659.00;;;;5026117;28;20044;-72
2021/07/03 00:33:12;;;;;;;0.00;0.00;;;15.80;83.10;15.00;101665.00;;;;5021277;28;20045;-71
2021/07/03 00:35:38;;;;;;;0.00;0.00;;;15.80;83.10;15.00;101657.00;;;;5022801;28;20099;-72
2021/07/03 00:38:05;;;;;;;;;;;15.80;83.40;14.90;101657.00;;;;5024769;28;20184;-71
2021/07/03 00:40:32;;;;;;;0.00;0.00;;;15.70;84.10;14.80;101655.00;;;;5023644;28;19925;-71
2021/07/03 00:42:58;;;;;;;0.00;0.00;;;15.70;83.20;14.80;101656.00;;;;5007931;28;20049;-70
2021/07/03 00:45:25;;;;;;;0.00;0.00;;;15.60;83.80;14.80;101650.00;;;;5023674;28;20064;-71
2021/07/03 00:47:53;;;;;;;0.00;0.00;;;15.70;83.90;14.80;101648.00;;;;5021510;28;20520;-71
2021/07/03 00:50:21;;;;;;;0.00;0.00;;;15.60;83.70;14.80;101645.00;;;;5021121;28;20152;-71
2021/07/03 00:52:47;;;;;;;0.00;0.00;;;15.60;83.40;14.80;101644.00;;;;5021324;28;20068;-71
2021/07/03 00:55:19;;;;;;;0.00;0.00;;;15.60;83.60;14.80;101658.00;;;;5024402;28;20042;-72
2021/07/03 00:57:47;;;;;;;0.00;0.00;;;15.60;83.60;14.80;101643.00;;;;5022662;28;20176;-71
2021/07/03 01:00:16;;;;;;;0.00;0.00;;;15.60;83.50;14.80;101644.00;;;;5026114;28;20646;-71
2021/07/03 01:02:43;;;;;;;0.00;0.00;;;15.60;83.60;14.70;101642.00;;;;5025903;28;20046;-71
2021/07/03 01:05:10;;;;;;;0.00;0.00;;;15.50;83.60;14.70;101649.00;;;;5023540;28;20536;-71
2021/07/03 01:07:37;;;;;;;0.10;0.10;;;15.60;83.80;14.70;101651.00;;;;5021606;28;20570;-71
2021/07/03 01:10:15;;;;;;;0.00;0.00;;;15.50;83.80;14.70;101649.00;;;;5020727;28;20134;-71
2021/07/03 01:12:41;;;;;;;0.00;0.00;;;15.50;84.00;14.70;101648.00;;;;5006969;28;20164;-71
2021/07/03 01:15:08;;;;;;;0.00;0.00;;;15.50;84.10;14.60;101648.00;;;;5006517;28;20033;-71
2021/07/03 01:17:36;;;;;;;0.00;0.00;;;15.50;84.30;14.60;101646.00;;;;5026545;28;20084;-70
2021/07/03 01:20:05;;;;;;;0.00;0.00;;;15.40;83.90;14.60;101651.00;;;;5021411;28;20041;-71
2021/07/03 01:22:32;;;;;;;0.00;0.00;;;15.40;83.10;14.60;101655.00;;;;5022950;28;20612;-71
2021/07/03 01:24:58;;;;;;;0.00;0.00;;;15.40;83.20;14.60;101646.00;;;;5022460;28;20107;-71
2021/07/03 01:27:24;;;;;;;0.00;0.00;;;15.40;83.70;14.60;101642.00;;;;5007058;28;20579;-70
2021/07/03 01:29:50;;;;;;;0.00;0.00;;;15.40;83.80;14.50;101651.00;;;;5021859;28;20041;-70
2021/07/03 01:32:16;;;;;;;0.00;0.00;;;15.40;83.90;14.60;101638.00;;;;5024051;28;20601;-70
2021/07/03 01:34:44;;;;;;;0.00;0.00;;;15.40;83.60;14.50;101651.00;;;;5023127;28;20050;-70
2021/07/03 01:37:18;;;;;;;0.00;0.00;;;15.40;84.00;14.50;101650.00;;;;5021514;28;20075;-71
2021/07/03 01:39:51;;;;;;;0.00;0.00;;;15.30;83.80;14.50;101648.00;;;;5036461;28;20472;-71
2021/07/03 01:42:18;;;;;;;;;;;15.30;83.90;14.50;101638.00;;;;5021581;28;20033;-71
2021/07/03 01:44:45;;;;;;;0.00;0.00;;;15.30;84.20;14.50;101645.00;;;;5023880;28;20352;-71
2021/07/03 01:47:13;;;;;;;0.00;0.00;;;15.30;84.30;14.50;101636.00;;;;5003960;28;20368;-71
2021/07/03 01:49:45;;;;;;;0.00;0.00;;;15.30;84.00;14.40;101644.00;;;;5022660;28;20543;-71
2021/07/03 01:52:16;;;;;;;0.00;0.00;;;15.30;84.00;14.40;101634.00;;;;5021986;28;20183;-71
2021/07/03 01:54:44;;;;;;;0.00;0.00;;;15.30;84.10;14.40;101641.00;;;;5005745;28;20052;-71
2021/07/03 01:57:12;;;;;;;;;;;15.20;84.10;14.40;101640.00;;;;5020463;28;20184;-70
2021/07/03 01:59:49;;;;;;;0.00;0.00;;;15.20;84.30;14.40;101643.00;;;;5008120;28;19949;-69
2021/07/03 02:02:16;;;;;;;0.00;0.00;;;15.20;83.90;14.30;101646.00;;;;5022881;28;20076;-72
2021/07/03 02:04:42;;;;;;;0.00;0.00;;;15.20;84.30;14.30;101639.00;;;;5023632;28;20674;-70
2021/07/03 02:07:12;;;;;;;0.00;0.00;;;15.20;84.00;14.30;101637.00;;;;5037204;28;20400;-71
2021/07/03 02:09:38;;;;;;;0.00;0.00;;;15.10;83.70;14.30;101640.00;;;;5024705;28;20041;-71
2021/07/03 02:12:05;;;;;;;0.00;0.00;;;15.10;85.30;14.30;101632.00;;;;5016220;28;20045;-69
2021/07/03 02:14:52;;;;;;;0.00;0.00;;;15.10;84.40;14.30;101639.00;;;;5023405;28;20049;-72
2021/07/03 02:17:30;;;;;;;0.00;0.00;;;15.10;84.40;14.30;101631.00;;;;5023081;28;20049;-71
2021/07/03 02:19:59;;;;;;;0.00;0.00;;;15.10;84.40;14.30;101630.00;;;;5034941;28;20034;-71
2021/07/03 02:22:37;;;;;;;0.00;0.00;;;15.10;83.70;14.30;101634.00;;;;5020856;28;20053;-71
2021/07/03 02:25:04;;;;;;;0.00;0.00;;;15.00;83.40;14.20;101637.00;;;;5000333;28;20041;-71
2021/07/03 02:27:34;;;;;;;0.00;0.00;;;15.10;84.40;14.30;101632.00;;;;5019843;28;20121;-71
2021/07/03 02:30:11;;;;;;;0.00;0.00;;;15.10;84.70;14.20;101633.00;;;;5020016;28;20528;-72
2021/07/03 02:32:39;;;;;;;0.00;0.00;;;15.10;85.10;14.20;101631.00;;;;5023684;28;20124;-71
2021/07/03 02:35:07;;;;;;;;;;;15.10;84.90;14.20;101621.00;;;;5021456;28;20582;-70
2021/07/03 02:37:37;;;;;;;0.00;0.00;;;15.10;85.80;14.20;101619.00;;;;5019810;28;19921;-71
2021/07/03 02:40:06;;;;;;;0.00;0.00;;;15.00;85.10;14.20;101616.00;;;;5019818;28;20053;-70
2021/07/03 02:42:36;;;;;;;0.00;0.00;;;15.00;85.00;14.20;101627.00;;;;5022987;28;20037;-71
2021/07/03 02:45:06;;;;;;;0.00;0.00;;;15.00;85.00;14.20;101609.00;;;;5002263;28;20041;-70
2021/07/03 02:47:33;;;;;;;0.00;0.00;;;15.00;84.90;14.20;101618.00;;;;5020180;28;20044;-70
2021/07/03 02:49:59;;;;;;;0.00;0.00;;;15.00;85.00;14.20;101622.00;;;;5018904;28;20037;-70
2021/07/03 02:52:25;;;;;;;0.00;0.00;;;15.00;85.30;14.10;101609.00;;;;5019250;28;20049;-70
2021/07/03 02:54:51;;;;;;;0.00;0.00;;;15.00;85.10;14.10;101618.00;;;;5020014;28;20042;-70
2021/07/03 02:57:17;;;;;;;0.30;0.08;;;15.00;85.20;14.10;101602.00;;;;5036815;28;20038;-71
2021/07/03 02:59:44;;;;;;;0.00;0.00;;;15.00;85.50;14.20;101602.00;;;;5020916;28;20508;-71
2021/07/03 03:02:11;;;;;;;0.10;0.00;;;15.00;85.40;14.10;101607.00;;;;5020696;28;20029;-71
2021/07/03 03:04:39;;;;;;;;;;;15.00;85.50;14.20;101613.00;;;;4988882;28;20041;-71
2021/07/03 03:07:06;;;;;;;3.65;0.20;;;15.00;86.10;14.10;101606.00;;;;5020566;28;19931;-71
2021/07/03 03:09:33;;;;;;;0.00;0.00;;;15.00;85.00;14.10;101608.00;;;;5018835;28;20099;-71
2021/07/03 03:12:00;;;;;;;0.00;0.00;;;15.00;85.20;14.10;101602.00;;;;5028628;28;20726;-72
2021/07/03 03:14:26;;;;;;;0.05;0.05;;;14.90;85.20;14.10;101602.00;;;;5019671;28;20065;-70
2021/07/03 03:16:54;;;;;;;0.00;0.00;;;15.00;85.10;14.10;101605.00;;;;5019384;28;21017;-70
2021/07/03 03:19:22;;;;;;;0.00;0.00;;;15.00;86.50;14.10;101597.00;;;;5021636;28;20049;-71
2021/07/03 03:21:50;;;;;;;0.00;0.00;;;14.90;84.20;14.10;101591.00;;;;5036190;28;20038;-70
2021/07/03 03:24:17;;;;;;;0.00;0.00;;;14.90;85.00;14.20;101591.00;;;;5023336;28;20080;-71
2021/07/03 03:26:44;;;;;;;0.00;0.00;;;15.00;85.20;14.20;101592.00;;;;5019244;28;20045;-71
2021/07/03 03:29:13;;;;;;;0.00;0.00;;;15.00;85.20;14.20;101587.00;;;;5003366;28;20137;-72
2021/07/03 03:31:41;;;;;;;0.00;0.00;;;15.00;85.20;14.20;101581.00;;;;5004770;28;20053;-71
2021/07/03 03:34:08;;;;;;;0.00;0.00;;;15.00;85.20;14.20;101583.00;;;;5004616;28;20042;-71
2021/07/03 03:36:34;;;;;;;0.00;0.00;;;15.00;85.70;14.20;101581.00;;;;5002430;28;20159;-71
2021/07/03 03:39:03;;;;;;;0.00;0.00;;;15.00;85.60;14.20;101584.00;;;;5021534;28;20034;-71
2021/07/03 03:41:31;;;;;;;0.00;0.00;;;15.00;85.50;14.20;101578.00;;;;5019453;28;20544;-71
2021/07/03 03:43:58;;;;;;;0.00;0.00;;;15.00;85.30;14.30;101576.00;;;;5018224;28;20548;-72
2021/07/03 03:46:28;;;;;;;0.00;0.00;;;15.00;85.10;14.30;101571.00;;;;5034082;28;20045;-71
2021/07/03 03:48:54;;;;;;;0.00;0.00;;;15.00;85.30;14.30;101579.00;;;;5020559;28;20212;-71
2021/07/03 03:51:22;;;;;;;0.08;0.03;;;15.00;85.60;14.30;101575.00;;;;5020676;28;20049;-71
2021/07/03 03:53:48;;;;;;;0.00;0.00;;;15.10;85.50;14.40;101566.00;;;;5018925;28;20041;-70
2021/07/03 03:56:14;;;;;;;0.00;0.00;;;15.10;85.30;14.40;101573.00;;;;5004673;28;20095;-73
2021/07/03 03:58:43;;;;;;;0.00;0.00;;;15.10;85.40;14.40;101574.00;;;;5021870;28;20037;-73
2021/07/03 04:01:11;;;;;;;0.00;0.00;;;15.20;85.30;14.50;101570.00;;;;5020465;28;20076;-73
2021/07/03 04:03:38;;;;;;;0.00;0.00;;;15.20;85.30;14.50;101572.00;;;;5021207;28;20041;-71
2021/07/03 04:06:05;;;;;;;0.00;0.00;;;15.20;85.50;14.50;101570.00;;;;5020852;28;20453;-72
2021/07/03 04:08:31;;;;;;;0.00;0.00;;;15.20;85.40;14.50;101570.00;;;;5018566;28;20608;-72
2021/07/03 04:10:57;;;;;;;0.00;0.00;;;15.20;84.80;14.50;101572.00;;;;5023827;28;20083;-73
2021/07/03 04:13:23;;;;;;;0.00;0.00;;;15.20;85.40;14.50;101571.00;;;;5023052;28;20037;-72
2021/07/03 04:15:49;;;;;;;0.00;0.00;;;15.30;85.30;14.60;101576.00;;;;5018061;28;20620;-74
2021/07/03 04:18:15;;;;;;;0.00;0.00;;;15.30;85.30;14.60;101568.00;;;;5024047;28;20560;-72
2021/07/03 04:20:41;;;;;;;0.00;0.00;;;15.30;85.30;14.60;101563.00;;;;5020144;28;20630;-72
2021/07/03 04:23:07;;;;;;;0.00;0.00;;;15.30;84.40;14.60;101562.00;;;;5020895;28;20052;-73
2021/07/03 04:25:33;;;;;;;0.00;0.00;;;15.30;83.90;14.60;101569.00;;;;5018357;28;20041;-72
2021/07/03 04:28:00;;;;;;;0.00;0.00;;;15.30;84.90;14.60;101565.00;;;;5018981;28;20128;-72
2021/07/03 04:30:26;;;;;;;0.00;0.00;;;15.30;85.00;14.60;101563.00;;;;5023139;28;20057;-72
2021/07/03 04:32:52;;;;;;;0.00;0.00;;;15.30;85.10;14.60;101556.00;;;;5017590;28;20076;-73
2021/07/03 04:35:18;;;;;;;0.00;0.00;;;15.40;84.60;14.70;101565.00;;;;5018499;28;20038;-73
2021/07/03 04:37:45;;;;;;;0.00;0.00;;;15.40;84.50;14.70;101561.00;;;;5021440;28;20504;-72
2021/07/03 04:40:11;;;;;;;0.00;0.00;;;15.40;85.00;14.70;101562.00;;;;5018094;28;20042;-72
2021/07/03 04:42:37;;;;;;;0.00;0.00;;;15.50;84.70;14.80;101564.00;;;;5021062;28;20041;-73
2021/07/03 04:45:05;;;;;;;0.05;0.05;;;15.50;85.10;14.80;101566.00;;;;5020124;28;20049;-73
2021/07/03 04:47:33;;;;;;;0.00;0.00;;;15.60;84.60;14.90;101570.00;;;;5020397;28;20193;-73
2021/07/03 04:50:00;;;;;;;0.00;0.00;;;15.60;85.20;14.90;101578.00;;;;4988659;28;20106;-73
2021/07/03 04:52:26;;;;;;;0.00;0.00;;;15.60;85.10;15.00;101574.00;;;;5038163;28;20497;-73
2021/07/03 04:54:53;;;;;;;0.13;0.00;;;15.60;84.80;15.00;101576.00;;;;5021086;28;20132;-72
2021/07/03 04:57:19;;;;;;;0.00;0.00;;;15.70;84.30;15.00;101580.00;;;;5021068;28;20746;-72
2021/07/03 04:59:45;;;;;;;0.00;0.00;;;15.70;85.20;15.10;101583.00;;;;5021073;28;20538;-72
2021/07/03 05:02:14;;;;;;;0.00;0.00;;;15.80;85.10;15.20;101582.00;;;;5020136;28;20041;-73
2021/07/03 05:04:42;;;;;;;0.00;0.00;;;15.80;85.30;15.20;101575.00;;;;5020310;28;20041;-72
2021/07/03 05:07:09;;;;;;;0.00;0.00;;;15.90;85.30;15.30;101584.00;;;;5025096;28;20045;-72
2021/07/03 05:09:43;;;;;;;0.00;0.00;;;15.90;85.30;15.40;101596.00;;;;5004581;28;20083;-73
2021/07/03 05:12:09;;;;;;;0.10;0.10;;;16.00;85.40;15.50;101593.00;;;;5023832;28;20053;-72
2021/07/03 05:14:35;;;;;;;0.00;0.00;;;16.00;84.30;15.60;101586.00;;;;5023339;28;20037;-72
2021/07/03 05:17:01;;;;;;;0.00;0.00;;;16.20;85.50;15.80;101586.00;;;;5018993;28;20053;-72
2021/07/03 05:19:27;;;;;;;0.00;0.00;;;16.30;85.00;15.90;101596.00;;;;5023857;28;20042;-73
2021/07/03 05:21:53;;;;;;;0.00;0.00;;;16.50;84.50;16.00;101587.00;;;;5023297;28;20064;-72
2021/07/03 05:24:19;;;;;;;0.00;0.00;;;16.60;85.10;16.10;101590.00;;;;5005289;28;20029;-72
2021/07/03 05:26:45;;;;;;;0.00;0.00;;;16.60;84.70;16.20;101589.00;;;;5026382;28;20041;-72
2021/07/03 05:29:11;;;;;;;0.00;0.00;;;16.70;84.30;16.30;101590.00;;;;5025854;28;20048;-73
2021/07/03 05:31:37;;;;;;;0.65;0.20;;;16.80;84.90;16.40;101587.00;;;;5025039;28;20045;-73
2021/07/03 05:34:03;;;;;;;0.00;0.00;;;16.90;83.70;16.50;101589.00;;;;5021705;28;20137;-73
2021/07/03 05:36:29;;;;;;;0.00;0.00;;;17.00;83.80;16.60;101582.00;;;;5022767;28;20171;-72
2021/07/03 05:38:55;;;;;;;0.03;0.03;;;17.10;84.70;16.70;101576.00;;;;5025828;28;20052;-73
2021/07/03 05:41:21;;;;;;;0.00;0.00;;;17.20;83.40;16.80;101575.00;;;;5024671;28;20037;-73
2021/07/03 05:43:48;;;;;;;0.00;0.00;;;17.20;83.30;16.90;101570.00;;;;5022481;28;20594;-73
2021/07/03 05:46:14;;;;;;;1.42;0.20;;;17.30;82.80;17.00;101572.00;;;;5024067;28;20041;-73
2021/07/03 05:48:42;;;;;;;0.93;0.30;;;17.40;82.90;17.10;101562.00;;;;5021175;28;20041;-73
2021/07/03 05:51:09;;;;;;;0.20;0.10;;;17.50;83.30;17.30;101569.00;;;;5022162;28;20090;-73
2021/07/03 05:53:35;;;;;;;;;;;17.70;82.10;17.40;101571.00;;;;5026100;28;20037;-73
2021/07/03 05:56:02;;;;;;;0.00;0.00;;;17.80;82.40;17.50;101574.00;;;;5007941;28;20019;-73
2021/07/03 05:58:28;;;;;;;0.00;0.00;;;17.90;82.10;17.60;101568.00;;;;5023262;28;20037;-73
2021/07/03 06:00:54;;;;;;;0.00;0.00;;;18.00;81.80;17.80;101572.00;;;;5025583;28;20088;-73
2021/07/03 06:03:22;;;;;;;0.30;0.30;;;18.20;81.10;17.90;101574.00;;;;5024382;28;20045;-73
2021/07/03 06:05:48;;;;;;;0.00;0.00;;;18.30;81.30;18.00;101568.00;;;;5023917;28;20664;-73
2021/07/03 06:08:14;;;;;;;0.13;0.03;;;18.40;80.80;18.00;101569.00;;;;5022361;28;20049;-73
2021/07/03 06:10:40;;;;;;;0.00;0.00;;;18.50;80.40;18.10;101565.00;;;;5024323;28;20045;-73
2021/07/03 06:13:08;;;;;;;0.00;0.00;;;18.50;80.50;18.20;101568.00;;;;5024447;28;20046;-74
2021/07/03 06:15:34;;;;;;;0.35;0.32;;;18.60;79.50;18.30;101571.00;;;;5025423;28;20041;-73
2021/07/03 06:18:01;;;;;;;0.03;0.03;;;;;18.40;101560.00;;;;5023148;28;20076;-74
2021/07/03 06:20:27;;;;;;;0.08;0.08;;;18.70;78.40;18.50;101562.00;;;;5023127;28;20049;-74
2021/07/03 06:22:53;;;;;;;0.30;0.22;;;18.90;78.40;18.60;101559.00;;;;5028669;28;20397;-74
2021/07/03 06:25:19;;;;;;;0.10;0.10;;;19.00;80.30;18.70;101553.00;;;;5007091;28;20115;-74
2021/07/03 06:27:45;;;;;;;0.00;0.00;;;19.00;77.20;18.70;101559.00;;;;5024703;28;20539;-74
2021/07/03 06:30:12;;;;;;;0.00;0.00;;;19.10;78.10;18.80;101564.00;;;;5021706;28;20070;-72
2021/07/03 06:32:38;;;;;;;;;;;19.20;78.20;19.00;101557.00;;;;5023736;28;20033;-73
2021/07/03 06:35:06;;;;;;;0.22;0.10;;;19.30;77.10;19.10;101560.00;;;;5020216;28;20372;-72
2021/07/03 06:37:32;;;;;;;0.10;0.10;;;19.40;77.60;19.30;101557.00;;;;5019569;28;20091;-75
2021/07/03 06:39:59;;;;;;;0.00;0.00;;;19.50;77.20;19.40;101561.00;;;;5020732;28;21150;-72
2021/07/03 06:42:25;;;;;;;0.08;0.08;;;19.70;78.10;19.50;101568.00;;;;5024375;28;20030;-72
2021/07/03 06:44:51;;;;;;;0.00;0.00;;;19.80;78.40;19.70;101561.00;;;;5022885;28;20049;-73
2021/07/03 06:47:19;;;;;;;0.03;0.03;;;19.90;77.10;19.80;101570.00;;;;5006453;28;20079;-73
2021/07/03 06:49:45;;;;;;;1.90;0.50;;;20.10;77.40;19.90;101570.00;;;;5022853;28;20555;-73
2021/07/03 06:52:12;;;;;;;0.03;0.03;;;20.20;77.10;20.10;101567.00;;;;5023123;28;20049;-73
2021/07/03 06:54:41;;;;;;;;;;;20.30;77.10;20.20;101562.00;;;;5021255;28;20049;-73
2021/07/03 06:57:12;;;;;;;0.15;0.15;;;20.40;76.30;20.30;101564.00;;;;5023424;28;19921;-73
2021/07/03 06:59:38;;;;;;;0.00;0.00;;;20.50;76.30;20.40;101567.00;;;;5021997;28;20064;-73
2021/07/03 07:02:04;;;;;;;0.10;0.10;;;20.60;75.50;20.50;101561.00;;;;5021578;28;20125;-73
2021/07/03 07:04:30;;;;;;;0.00;0.00;;;20.80;76.80;20.70;101566.00;;;;5024350;28;20125;-74
2021/07/03 07:06:57;;;;;;;0.10;0.10;;;20.90;76.50;20.70;101563.00;;;;5021460;28;20161;-72
2021/07/03 07:09:25;;;;;;;0.10;0.10;;;21.00;75.30;20.80;101550.00;;;;5018796;28;20044;-73
2021/07/03 07:11:52;;;;;;;0.08;0.08;;;21.10;74.40;20.80;101568.00;;;;5004797;28;20041;-73
2021/07/03 07:14:19;;;;;;;0.10;0.10;;;21.10;74.90;20.90;101555.00;;;;5019067;28;20099;-73
2021/07/03 07:16:45;;;;;;;0.05;0.05;;;21.20;73.30;21.00;101563.00;;;;5021079;28;20045;-73
2021/07/03 07:19:11;;;;;;;0.27;0.10;;;21.20;74.40;21.10;101563.00;;;;5022626;28;20048;-73
2021/07/03 07:21:37;;;;;;;0.23;0.23;;;21.40;74.30;21.20;101565.00;;;;5020679;28;20288;-73
2021/07/03 07:24:04;;;;;;;0.20;0.20;;;21.40;75.30;21.30;101563.00;;;;5020574;28;20557;-73
2021/07/03 07:26:31;;;;;;;0.10;0.10;;;21.50;74.60;21.30;101555.00;;;;5021921;28;20073;-74
2021/07/03 07:28:57;;;;;;;0.00;0.00;;;21.60;73.90;21.40;101559.00;;;;5022701;28;20815;-74
2021/07/03 07:31:23;;;;;;;0.27;0.27;;;21.70;75.70;21.60;101556.00;;;;5021112;28;20044;-74
2021/07/03 07:33:49;;;;;;;0.10;0.10;;;21.80;71.30;21.60;101560.00;;;;5019293;28;20130;-74
2021/07/03 07:36:15;;;;;;;0.65;0.10;;;21.80;74.10;21.60;101559.00;;;;5021241;28;20053;-73
2021/07/03 07:38:41;;;;;;;0.32;0.30;;;21.80;73.00;21.70;101566.00;;;;5020902;28;20041;-74
2021/07/03 07:41:07;;;;;;;0.10;0.10;;;21.90;71.30;21.70;101569.00;;;;5038046;28;20060;-74
2021/07/03 07:43:33;;;;;;;0.10;0.10;;;22.00;73.60;21.80;101569.00;;;;5023553;28;20038;-73
2021/07/03 07:46:00;;;;;;;1.80;0.63;;;22.10;72.90;21.90;101554.00;;;;5019892;28;20095;-73
2021/07/03 07:48:27;;;;;;;0.38;0.38;;;22.20;71.30;21.90;101558.00;;;;5042895;28;20314;-72
2021/07/03 07:50:56;;;;;;;0.10;0.10;;;22.10;73.50;22.10;101561.00;;;;5037136;28;20040;-72
2021/07/03 07:53:22;;;;;;;0.00;0.00;;;22.30;71.40;22.20;101559.00;;;;5007631;28;20045;-71
2021/07/03 07:55:49;;;;;;;0.10;0.10;;;22.40;73.50;22.30;101565.00;;;;5021473;28;20072;-74
2021/07/03 07:58:15;;;;;;;0.00;0.00;;;22.50;70.20;22.40;101561.00;;;;5023831;28;20503;-67
2021/07/03 08:00:41;;;;;;;1.13;0.15;;;22.60;71.20;22.50;101556.00;;;;5021611;28;20037;-74
2021/07/03 08:03:07;;;;;;;0.10;0.10;;;22.70;73.40;22.70;101560.00;;;;5024692;28;20025;-74
2021/07/03 08:05:35;;;;;;;0.00;0.00;;;22.80;73.80;22.80;101549.00;;;;5021833;28;20051;-75
2021/07/03 08:08:03;;;;;;;0.00;0.00;;;23.00;71.70;22.90;101558.00;;;;5021646;28;20829;-74
2021/07/03 08:10:30;;;;;;;0.63;0.60;;;23.00;67.90;22.90;101548.00;;;;5022293;28;20033;-74
2021/07/03 08:12:56;;;;;;;0.43;0.43;;;23.10;67.90;22.90;101556.00;;;;5023762;28;20584;-75
2021/07/03 08:15:22;;;;;;;0.00;0.00;;;23.10;71.80;23.00;101556.00;;;;5021565;28;20045;-75
2021/07/03 08:17:48;;;;;;;0.30;0.30;;;23.20;70.00;23.10;101547.00;;;;5020596;28;20463;-74
2021/07/03 08:20:21;;;;;;;0.00;0.00;;;23.30;69.80;23.30;101550.00;;;;5020313;28;20036;-75
2021/07/03 08:22:50;;;;;;;0.00;0.00;;;23.50;71.20;23.40;101557.00;;;;5020355;28;20045;-75
2021/07/03 08:25:17;;;;;;;0.10;0.10;;;23.50;72.20;23.50;101546.00;;;;5021116;28;20033;-75
2021/07/03 08:27:44;;;;;;;0.10;0.10;;;23.70;68.20;23.50;101553.00;;;;5021754;28;20041;-75
2021/07/03 08:30:12;;;;;;;0.00;0.00;;;23.70;68.20;23.70;101548.00;;;;5019696;28;20046;-75
2021/07/03 08:32:39;;;;;;;0.10;0.10;;;23.80;68.90;23.80;101541.00;;;;5021892;28;20619;-75
2021/07/03 08:35:06;;;;;;;0.30;0.30;;;23.90;71.10;23.90;101546.00;;;;5020766;28;20056;-76
2021/07/03 08:37:32;;;;;;;0.75;0.43;;;24.10;67.90;23.90;101542.00;;;;5021796;28;20667;-76
2021/07/03 08:39:59;;;;;;;0.03;0.03;;;24.10;67.20;24.00;101543.00;;;;5022579;28;20075;-76
2021/07/03 08:42:25;;;;;;;1.83;0.55;;;24.20;65.10;24.10;101543.00;;;;5027399;28;20029;-75
2021/07/03 08:44:51;;;;;;;0.00;0.00;;;24.20;66.70;24.10;101539.00;;;;5024773;28;20091;-77
2021/07/03 08:47:18;;;;;;;0.17;0.17;;;24.30;70.10;24.30;101540.00;;;;5027536;28;20545;-77
2021/07/03 08:50:00;;;;;;;0.10;0.10;;;24.40;65.70;24.30;101532.00;;;;5024882;28;20080;-76
2021/07/03 08:52:27;;;;;;;0.20;0.10;;;24.40;69.40;24.30;101535.00;;;;5028374;28;20041;-76
2021/07/03 08:55:09;;;;;;;0.22;0.22;;;24.50;67.70;24.50;101525.00;;;;5027816;28;20056;-77
2021/07/03 08:57:50;;;;;;;0.43;0.22;;;24.60;68.40;24.50;101527.00;;;;5028517;28;20045;-77
2021/07/03 09:00:28;;;;;;;0.20;0.20;;;24.70;62.60;24.60;101525.00;;;;5026044;28;20041;-77
2021/07/03 09:02:54;;;;;;;0.10;0.10;;;25.00;67.80;24.70;101533.00;;;;5026871;28;20038;-77
2021/07/03 09:05:32;;;;;;;0.25;0.25;;;24.90;69.10;24.80;101533.00;;;;5028296;28;20183;-76
2021/07/03 09:08:04;;;;;;;0.30;0.17;;;25.00;60.60;24.90;101524.00;;;;5024407;28;20056;-68
2021/07/03 09:10:34;;;;;;;0.10;0.10;;;25.00;64.70;24.90;101520.00;;;;5025518;28;20471;-73
2021/07/03 09:13:01;;;;;;;0.00;0.00;;;25.10;62.00;25.00;101522.00;;;;5026891;28;20159;-76
2021/07/03 09:15:31;;;;;;;0.00;0.00;;;25.20;64.80;25.10;101518.00;;;;5024087;28;20042;-74
2021/07/03 09:18:00;;;;;;;0.00;0.00;;;25.20;65.70;25.20;101512.00;;;;5023995;28;20711;-76
2021/07/03 09:20:40;;;;;;;0.70;0.32;;;25.30;66.10;25.30;101504.00;;;;5024473;28;20401;-73
2021/07/03 09:23:19;;;;;;;0.10;0.10;;;25.50;61.30;25.40;101507.00;;;;5024305;28;20103;-74
2021/07/03 09:25:52;;;;;;;0.10;0.10;;;25.50;62.20;25.40;101509.00;;;;5025728;28;20049;-73
2021/07/03 09:28:28;;;;;;;0.00;0.00;;;25.60;65.10;25.50;101509.00;;;;5023956;28;20042;-75
2021/07/03 09:30:57;;;;;;;0.00;0.00;;;25.70;63.50;25.50;101505.00;;;;5042597;28;20042;-76
2021/07/03 09:33:36;;;;;;;0.00;0.00;;;25.70;59.00;25.60;101512.00;;;;5026633;28;20065;-75
2021/07/03 09:36:08;;;;;;;0.00;0.00;;;25.80;67.60;25.60;101504.00;;;;5025055;28;20056;-74
2021/07/03 09:38:38;;;;;;;0.00;0.00;;;25.80;64.80;25.70;101511.00;;;;5023397;28;20045;-74
2021/07/03 09:41:35;;;;;;;0.00;0.00;;;26.00;62.80;25.90;101523.00;;;;5027020;28;20075;-74
2021/07/03 09:44:08;;;;;;;0.17;0.17;;;26.00;61.10;25.80;101520.00;;;;5025335;28;20080;-74
2021/07/03 09:46:51;;;;;;;0.13;0.13;;;26.00;65.40;25.90;101514.00;;;;5024108;28;20045;-74
2021/07/03 09:49:25;;;;;;;0.03;0.03;;;26.10;60.80;26.00;101524.00;;;;5021848;28;20030;-74
2021/07/03 09:51:57;;;;;;;0.00;0.00;;;26.20;65.20;26.10;101517.00;;;;5025458;28;20049;-74
2021/07/03 09:54:28;;;;;;;0.08;0.08;;;26.30;62.00;26.10;101509.00;;;;5025894;28;20136;-74
2021/07/03 09:57:00;;;;;;;0.00;0.00;;;26.30;63.20;26.20;101514.00;;;;5025268;28;20049;-75
2021/07/03 09:59:35;;;;;;;0.00;0.00;;;26.40;62.70;26.30;101516.00;;;;5025819;28;20041;-75
2021/07/03 10:02:03;;;;;;;0.00;0.00;;;26.40;56.60;26.30;101513.00;;;;5023426;28;20049;-75
2021/07/03 10:04:29;;;;;;;0.00;0.00;;;26.50;62.20;26.40;101517.00;;;;5023345;28;20030;-75
2021/07/03 10:07:26;;;;;;;0.00;0.00;;;26.60;58.20;26.50;101512.00;;;;5024901;28;20076;-75
2021/07/03 10:09:57;;;;;;;0.47;0.10;;;26.70;57.20;26.50;101518.00;;;;5020299;28;20037;-75
2021/07/03 10:12:35;;;;;;;0.10;0.10;;;26.70;52.60;26.50;101509.00;;;;5039496;28;20045;-75
2021/07/03 10:15:03;;;;;;;0.00;0.00;;;26.70;60.90;26.60;101501.00;;;;5005218;28;20052;-75
2021/07/03 10:17:31;;;;;;;0.17;0.17;;;26.80;60.00;26.70;101510.00;;;;5025516;28;20038;-75
2021/07/03 10:19:58;;;;;;;0.00;0.00;;;26.80;57.90;26.70;101504.00;;;;5022488;28;20645;-75
2021/07/03 10:22:26;;;;;;;;;;;27.00;60.40;26.90;101501.00;;;;5022743;28;20033;-75
2021/07/03 10:24:56;;;;;;;0.00;0.00;;;27.00;53.60;27.10;101496.00;;;;5022860;28;19921;-76
2021/07/03 10:27:31;;;;;;;0.05;0.05;;;27.20;60.50;27.10;101499.00;;;;5021564;28;20052;-76
2021/07/03 10:30:01;;;;;;;0.03;0.03;;;27.30;54.70;27.00;101500.00;;;;5021132;28;20805;-77
2021/07/03 10:32:33;;;;;;;0.85;0.10;;;27.20;52.60;26.90;101496.00;;;;5023668;28;20053;-75
2021/07/03 10:35:18;;;;;;;0.10;0.10;;;27.10;58.50;26.80;101494.00;;;;5023719;28;20057;-74
2021/07/03 10:37:44;;;;;;;0.00;0.00;;;27.10;58.50;26.80;101497.00;;;;5022761;28;20045;-74
2021/07/03 10:40:30;;;;;;;0.30;0.10;;;27.10;57.60;26.90;101495.00;;;;5023955;28;20041;-74
2021/07/03 10:43:08;;;;;;;0.00;0.00;;;27.10;58.80;27.00;101487.00;;;;5027512;28;20056;-74
2021/07/03 10:46:01;;;;;;;0.35;0.35;;;27.20;62.90;27.10;101494.00;;;;5023602;28;20052;-76
2021/07/03 10:48:27;;;;;;;0.20;0.20;;;27.30;56.00;27.30;101484.00;;;;5023652;28;20106;-75
2021/07/03 10:51:09;;;;;;;0.20;0.20;;;27.50;51.90;27.50;101475.00;;;;5023280;28;20220;-76
2021/07/03 10:53:35;;;;;;;0.00;0.00;;;27.60;60.00;27.60;101477.00;;;;5021052;28;20072;-76
2021/07/03 10:56:15;;;;;;;0.08;0.08;;;27.80;61.40;27.70;101480.00;;;;5022282;28;20037;-76